Weather reports worldwide

Advertisment
Vieste, Italy (16266): temperature & dewpoint: 25.10.2020 09:00:00 - 31.10.2020 09:00:00 (CET)Vieste, Italy (16266): wind speed: 25.10.2020 09:00:00 - 31.10.2020 09:00:00 (CET)Vieste, Italy (16266): wind direction: 25.10.2020 09:00:00 - 31.10.2020 09:00:00 (CET)Vieste, Italy (16266): reduced air pressure: 25.10.2020 09:00:00 - 31.10.2020 09:00:00 (CET)Vieste, Italy (16266): precipitation: 25.10.2020 09:00:00 - 31.10.2020 09:00:00 (CET)
Date & Time tt [°C] td [°C] ff [km/h] ff [kn] dd ppp [hPa] rr [mm]
31.10.2020 09:00:00 - - - - - - -
31.10.2020 08:00:00 - - - - - - -
31.10.2020 07:00:00 13,1 10,1 4 2 NW 1023,5 0,0
31.10.2020 06:00:00 12,7 9,1 2 1 WNW 1023,1 -
31.10.2020 05:00:00 13,7 10,7 4 2 WNW 1023,5 -
31.10.2020 04:00:00 14,3 12,0 5 3 NNW 1023,6 -
31.10.2020 03:00:00 14,3 12,0 5 3 NNW 1023,4 -
31.10.2020 02:00:00 13,1 10,1 4 2 NW 1023,8 -
31.10.2020 01:00:00 12,8 9,0 0 0 N 1023,9 0,0
31.10.2020 00:00:00 13,6 10,6 4 2 NW 1024,1 -
30.10.2020 23:00:00 12,4 9,2 0 0 N 1024,2 -
30.10.2020 22:00:00 12,7 10,4 0 0 N 1024,0 -
30.10.2020 21:00:00 14,3 12,7 - - - 1024,0 -
30.10.2020 20:00:00 14,8 13,1 - - - 1023,7 -
30.10.2020 19:00:00 15,5 13,6 - - - 1023,9 0,0
30.10.2020 18:00:00 16,0 13,9 - - - 1023,7 -
30.10.2020 17:00:00 16,8 14,6 - - - 1023,3 -
30.10.2020 16:00:00 17,7 15,1 - - - 1023,2 -
30.10.2020 15:00:00 18,1 15,3 - - - 1023,1 -
30.10.2020 14:00:00 18,7 15,1 21 11 N 1022,9 -
30.10.2020 13:00:00 19,2 14,8 11 6 N 1023,2 0,0
30.10.2020 12:00:00 19,2 15,0 13 7 N 1023,7 -
30.10.2020 11:00:00 19,1 14,7 13 7 N 1023,8 -
30.10.2020 10:00:00 18,1 15,1 13 7 N 1023,8 -
30.10.2020 09:00:00 16,8 14,4 9 5 N 1023,5 -
30.10.2020 08:00:00 16,2 14,0 9 5 NNW 1023,2 -
30.10.2020 07:00:00 15,9 13,8 11 6 NNW 1022,7 0,0
30.10.2020 06:00:00 15,6 13,4 9 5 NNW 1022,2 -
30.10.2020 05:00:00 15,5 12,9 8 4 NW 1021,7 -
30.10.2020 04:00:00 15,6 12,5 8 4 NNW 1021,2 -
30.10.2020 03:00:00 15,8 12,5 9 5 NNW 1021,1 -
30.10.2020 02:00:00 15,8 11,9 8 4 N 1021,3 -
30.10.2020 01:00:00 16,1 11,6 - - - 1021,1 0,0
30.10.2020 00:00:00 16,4 11,1 - - - 1021,1 -
29.10.2020 23:00:00 16,5 11,0 - - - 1021,0 -
29.10.2020 22:00:00 16,0 10,5 - - - 1020,4 -
29.10.2020 21:00:00 16,2 10,5 - - - 1020,3 -
29.10.2020 20:00:00 15,7 9,8 - - - 1020,0 -
29.10.2020 19:00:00 15,3 8,7 - - - 1020,0 0,0
29.10.2020 18:00:00 15,6 8,8 - - - 1019,5 -
29.10.2020 17:00:00 16,9 9,8 - - - 1019,1 -
29.10.2020 16:00:00 17,6 9,9 - - - 1018,9 -
29.10.2020 15:00:00 18,1 10,2 11 6 N 1018,5 -
29.10.2020 14:00:00 18,4 11,2 - - - 1018,2 -
29.10.2020 13:00:00 18,5 11,5 15 8 NNW 1018,5 0,0
29.10.2020 12:00:00 18,7 11,2 13 7 N 1018,8 -
29.10.2020 11:00:00 17,8 11,8 13 7 N 1018,8 -
29.10.2020 10:00:00 17,7 11,9 9 5 NNW 1018,4 -
29.10.2020 09:00:00 16,9 13,3 9 5 NNW 1018,6 -
29.10.2020 08:00:00 15,6 13,4 8 4 N 1018,4 -
29.10.2020 07:00:00 14,2 11,9 8 4 W 1018,1 0,0
29.10.2020 06:00:00 14,6 12,3 9 5 N 1017,3 -
29.10.2020 05:00:00 15,0 12,7 9 5 W 1017,1 -
29.10.2020 04:00:00 15,3 13,1 11 6 N 1017,0 -
29.10.2020 03:00:00 15,3 13,1 11 6 NW 1016,7 -
29.10.2020 02:00:00 15,4 13,2 11 6 NNW 1016,7 -
29.10.2020 01:00:00 15,6 13,2 13 7 NNW 1016,8 0,0
29.10.2020 00:00:00 15,5 12,6 11 6 NNW 1016,8 -
28.10.2020 23:00:00 15,8 12,5 - - - 1017,0 -
28.10.2020 22:00:00 15,7 12,8 13 7 NNW 1017,0 -
28.10.2020 21:00:00 15,8 12,7 11 6 NNW 1016,9 -
28.10.2020 20:00:00 16,4 13,1 15 8 NNW 1016,8 -
28.10.2020 19:00:00 16,7 13,2 - - - 1016,3 0,0
28.10.2020 18:00:00 17,0 13,3 - - - 1016,1 -
28.10.2020 17:00:00 17,1 13,5 16 9 N 1015,6 -
28.10.2020 16:00:00 17,7 13,7 21 11 N 1015,2 -
28.10.2020 15:00:00 18,4 14,6 18 10 NW 1014,9 -
28.10.2020 14:00:00 18,6 14,8 18 10 N 1014,8 -
28.10.2020 13:00:00 18,7 14,7 24 13 NNW 1014,9 -
28.10.2020 12:00:00 18,8 15,8 21 11 NNE 1014,9 -
28.10.2020 11:00:00 18,9 16,4 24 13 NE 1015,0 -
28.10.2020 10:00:00 18,2 16,5 26 14 N 1014,7 -
28.10.2020 09:00:00 18,0 16,8 16 9 NNW 1014,2 -
28.10.2020 08:00:00 16,5 15,0 9 5 N 1013,6 -
28.10.2020 07:00:00 15,7 14,0 11 6 N 1012,8 -
28.10.2020 06:00:00 15,3 13,6 11 6 NW 1012,7 -
28.10.2020 05:00:00 14,9 13,2 11 6 NNW 1012,6 -
28.10.2020 04:00:00 14,6 13,1 11 6 NW 1012,4 -
28.10.2020 03:00:00 15,0 14,0 11 6 NW 1013,0 -
28.10.2020 02:00:00 14,9 13,7 11 6 W 1013,0 -
28.10.2020 01:00:00 15,0 13,8 8 4 NNW 1012,7 -
28.10.2020 00:00:00 15,8 14,8 5 3 WNW 1012,7 -
27.10.2020 23:00:00 15,9 14,7 2 1 NW 1012,5 -
27.10.2020 22:00:00 15,3 13,9 4 2 WNW 1012,1 -
27.10.2020 21:00:00 14,9 13,5 4 2 WNW 1012,0 -
27.10.2020 20:00:00 14,9 13,5 4 2 WNW 1011,7 -
27.10.2020 19:00:00 15,1 13,7 4 2 W 1011,6 -
27.10.2020 18:00:00 15,7 14,0 4 2 SSW 1011,4 -
27.10.2020 17:00:00 16,8 14,7 0 0 N 1011,1 -
27.10.2020 16:00:00 18,1 15,3 4 2 N 1010,5 -
27.10.2020 15:00:00 18,5 15,5 13 7 N 1010,6 -
27.10.2020 14:00:00 19,1 14,9 9 5 NE 1010,6 -
27.10.2020 13:00:00 20,7 13,1 4 2 S 1010,3 0,0
27.10.2020 12:00:00 20,9 13,3 9 5 W 1010,5 -
27.10.2020 11:00:00 19,6 15,0 15 8 S 1010,5 -
27.10.2020 10:00:00 19,7 15,1 13 7 S 1010,6 -
27.10.2020 09:00:00 19,8 15,6 13 7 SSE 1011,0 -
27.10.2020 08:00:00 17,8 15,5 5 3 S 1010,8 -
27.10.2020 07:00:00 16,0 13,4 5 3 WSW 1010,8 0,0
27.10.2020 06:00:00 15,4 12,5 5 3 WSW 1010,4 -
27.10.2020 05:00:00 15,7 11,8 9 5 SW 1010,3 -
27.10.2020 04:00:00 15,7 11,8 8 4 WSW 1010,5 -
27.10.2020 03:00:00 16,2 12,3 5 3 WSW 1010,8 -
27.10.2020 02:00:00 15,7 11,4 8 4 SW 1011,3 -
27.10.2020 01:00:00 16,0 11,5 9 5 SSW 1011,6 0,0
27.10.2020 00:00:00 17,0 14,0 9 5 SSW 1012,0 -
26.10.2020 23:00:00 16,6 12,7 8 4 SW 1012,3 -
26.10.2020 22:00:00 17,0 12,9 9 5 WSW 1012,4 -
26.10.2020 21:00:00 15,3 11,5 2 1 WNW 1012,3 -
26.10.2020 20:00:00 15,6 12,1 0 0 N 1011,6 -
26.10.2020 19:00:00 18,4 15,2 5 3 S 1011,7 0,0
26.10.2020 18:00:00 18,7 15,9 8 4 SSE 1011,8 -
26.10.2020 17:00:00 19,1 15,9 11 6 S 1011,8 -
26.10.2020 16:00:00 19,5 15,5 13 7 SSE 1012,2 -
26.10.2020 15:00:00 20,0 15,1 18 10 SSW 1012,4 -
26.10.2020 14:00:00 20,0 15,1 18 10 SSW 1012,5 -
26.10.2020 13:00:00 21,7 14,0 13 7 SSW 1012,6 0,0
26.10.2020 12:00:00 20,2 13,3 2 1 NNE 1013,4 -
26.10.2020 11:00:00 20,5 15,2 8 4 S 1013,9 -
26.10.2020 10:00:00 18,2 14,6 2 1 ENE 1014,1 -
26.10.2020 09:00:00 17,8 15,4 0 0 N 1014,4 -
26.10.2020 08:00:00 14,9 13,2 0 0 N 1014,7 -
26.10.2020 07:00:00 12,9 10,8 2 1 WNW 1014,6 0,0
26.10.2020 06:00:00 13,0 10,9 4 2 W 1014,6 -
26.10.2020 05:00:00 12,7 10,4 4 2 W 1014,8 -
26.10.2020 04:00:00 12,8 10,1 2 1 W 1015,0 -
26.10.2020 03:00:00 13,9 11,0 5 3 W 1015,2 -
26.10.2020 02:00:00 13,3 10,6 2 1 W 1015,6 -
26.10.2020 01:00:00 12,7 9,7 0 0 N 1016,1 0,0
26.10.2020 00:00:00 13,1 9,5 2 1 W 1016,3 -
25.10.2020 23:00:00 13,7 9,5 0 0 N 1016,4 -
25.10.2020 22:00:00 14,6 10,0 2 1 SSW 1016,1 -
25.10.2020 21:00:00 15,5 10,8 5 3 NW 1015,9 -
25.10.2020 20:00:00 15,3 10,9 5 3 NW 1016,0 -
25.10.2020 19:00:00 14,8 10,2 2 1 NW 1016,2 -
25.10.2020 18:00:00 16,5 10,7 2 1 WNW 1015,9 -
25.10.2020 17:00:00 18,2 11,5 4 2 NW 1015,3 -
25.10.2020 16:00:00 19,4 11,6 9 5 NNW 1015,3 -
25.10.2020 15:00:00 19,8 12,0 13 7 NNW 1015,2 -
25.10.2020 14:00:00 19,8 12,0 9 5 N 1015,0 -
25.10.2020 13:00:00 19,3 12,3 9 5 N 1015,5 -
25.10.2020 12:00:00 18,6 12,9 8 4 NNE 1015,8 -
25.10.2020 11:00:00 18,5 13,5 5 3 NNW 1016,0 -
25.10.2020 10:00:00 17,6 14,2 5 3 WNW 1015,9 -
25.10.2020 09:00:00 18,0 15,0 8 4 N 1015,8 -

tt = temperature
td = dewpoint
ff = wind speed
dd = wind direction
ppp = reduced air pressure
rr = precipitation

Next stations